Time;durP1;ratioP1;P1;durP2;ratioP2;P2;SDS_P1;SDS_P2;PMS_P1;PMS_P2;Temp;Humidity;BMP_temperature;BMP_pressure;BME280_temperature;BME280_humidity;BME280_pressure;Samples;Min_cycle;Max_cycle;Signal;HPM_P1;HPM_P2
2022/01/06 00:00:23;;;;;;;;;;;6.40;99.90;;;;;;5097664;28;19907;-90
2022/01/06 00:02:49;;;;;;;;;;;6.40;99.90;;;;;;5097594;28;19930;-90
2022/01/06 00:05:14;;;;;;;;;;;6.40;99.90;;;;;;5115396;28;20266;-91
2022/01/06 00:07:40;;;;;;;;;;;6.40;99.90;;;;;;5097123;28;19911;-91
2022/01/06 00:10:10;;;;;;;;;;;6.30;99.90;;;;;;5097305;28;20353;-90
2022/01/06 00:12:49;;;;;;;;;;;6.40;99.90;;;;;;5097719;28;20262;-91
2022/01/06 00:16:03;;;;;;;;;;;6.30;99.90;;;;;;5097567;28;20391;-90
2022/01/06 00:25:57;;;;;;;;;;;6.40;99.90;;;;;;5115244;28;19960;-91
2022/01/06 00:28:23;;;;;;;;;;;6.40;99.90;;;;;;5097551;28;19915;-91
2022/01/06 00:30:48;;;;;;;;;;;6.30;99.90;;;;;;5096955;28;20342;-91
2022/01/06 00:33:14;;;;;;;;;;;6.40;99.90;;;;;;5097143;28;19946;-90
2022/01/06 00:35:40;;;;;;;;;;;6.30;99.90;;;;;;5096975;28;19907;-91
2022/01/06 00:38:07;;;;;;;;;;;6.30;99.90;;;;;;5096957;28;19912;-91
2022/01/06 00:40:33;;;;;;;;;;;6.30;99.90;;;;;;5096855;28;19911;-90
2022/01/06 00:42:59;;;;;;;;;;;6.30;99.90;;;;;;5093331;28;20320;-90
2022/01/06 00:45:24;;;;;;;;;;;6.30;99.90;;;;;;5094562;28;19998;-91
2022/01/06 00:47:50;;;;;;;;;;;6.30;99.90;;;;;;5093362;28;19912;-91
2022/01/06 00:50:15;;;;;;;;;;;6.30;99.90;;;;;;5095014;28;19916;-91
2022/01/06 00:52:41;;;;;;;;;;;6.30;99.90;;;;;;5097909;28;19908;-91
2022/01/06 00:55:07;;;;;;;;;;;6.30;99.90;;;;;;5096989;28;19908;-91
2022/01/06 00:57:32;;;;;;;;;;;6.20;99.90;;;;;;5096668;28;19912;-91
2022/01/06 00:59:58;;;;;;;;;;;6.30;99.90;;;;;;5096666;28;19908;-90
2022/01/06 01:02:23;;;;;;;;;;;6.30;99.90;;;;;;5096823;28;20042;-91
2022/01/06 01:04:49;;;;;;;;;;;6.30;99.90;;;;;;5096798;28;19909;-90
2022/01/06 01:07:15;;;;;;;;;;;6.30;99.90;;;;;;5096336;28;19908;-91
2022/01/06 01:09:41;;;;;;;;;;;6.20;99.90;;;;;;5096686;28;20274;-91
2022/01/06 01:12:07;;;;;;;;;;;6.20;99.90;;;;;;5097793;28;19915;-90
2022/01/06 01:14:44;;;;;;;;;;;6.20;99.90;;;;;;5097196;28;20313;-90
2022/01/06 01:17:14;;;;;;;;;;;6.20;99.90;;;;;;5096938;28;20378;-90
2022/01/06 01:19:39;;;;;;;;;;;6.20;99.90;;;;;;5096613;28;19909;-91
2022/01/06 01:22:05;;;;;;;;;;;6.20;99.90;;;;;;5096664;28;19927;-91
2022/01/06 01:24:31;;;;;;;;;;;6.10;99.90;;;;;;5097297;28;20038;-91
2022/01/06 01:26:56;;;;;;;;;;;6.10;99.90;;;;;;5096268;28;20409;-90
2022/01/06 01:29:22;;;;;;;;;;;6.10;99.90;;;;;;5096318;28;20275;-91
2022/01/06 01:31:51;;;;;;;;;;;6.10;99.90;;;;;;5096729;28;19923;-90
2022/01/06 01:34:23;;;;;;;;;;;6.10;99.90;;;;;;5097258;28;19915;-91
2022/01/06 01:36:48;;;;;;;;;;;6.00;99.90;;;;;;5096348;28;19915;-91
2022/01/06 01:39:14;;;;;;;;;;;6.10;99.90;;;;;;5096194;28;19908;-91
2022/01/06 01:41:40;;;;;;;;;;;6.10;99.90;;;;;;5097077;28;19908;-92
2022/01/06 01:44:12;;;;;;;;;;;6.00;99.90;;;;;;5100045;28;20342;-91
2022/01/06 01:46:43;;;;;;;;;;;6.00;99.90;;;;;;5099748;28;19912;-91
2022/01/06 01:49:17;;;;;;;;;;;6.00;99.90;;;;;;5099585;28;19908;-91
2022/01/06 01:51:44;;;;;;;;;;;6.00;99.90;;;;;;5099869;28;19916;-91
2022/01/06 01:54:09;;;;;;;;;;;6.00;99.90;;;;;;5099232;28;20349;-91
2022/01/06 01:56:35;;;;;;;;;;;5.90;99.90;;;;;;5099751;28;19908;-91
2022/01/06 01:59:00;;;;;;;;;;;5.90;99.90;;;;;;5099203;28;19908;-91
2022/01/06 02:01:26;;;;;;;;;;;5.90;99.90;;;;;;5117254;28;19915;-91
2022/01/06 02:03:52;;;;;;;;;;;5.80;99.90;;;;;;5099163;28;19915;-93
2022/01/06 02:06:18;;;;;;;;;;;5.80;99.90;;;;;;5098786;28;20251;-91
2022/01/06 02:08:44;;;;;;;;;;;5.80;99.90;;;;;;5099234;28;19912;-91
2022/01/06 02:11:09;;;;;;;;;;;5.70;99.90;;;;;;5099060;28;20407;-91
2022/01/06 02:13:48;;;;;;;;;;;5.70;99.90;;;;;;5099156;28;19908;-91
2022/01/06 02:16:14;;;;;;;;;;;5.70;99.90;;;;;;5098924;28;19908;-91
2022/01/06 02:18:39;;;;;;;;;;;5.70;99.90;;;;;;5098852;28;19915;-91
2022/01/06 02:21:05;;;;;;;;;;;5.70;99.90;;;;;;5099304;28;19915;-90
2022/01/06 02:23:31;;;;;;;;;;;5.60;99.90;;;;;;5098639;28;19964;-90
2022/01/06 02:25:56;;;;;;;;;;;5.60;99.90;;;;;;5099243;28;19918;-91
2022/01/06 02:28:24;;;;;;;;;;;5.60;99.90;;;;;;5098576;28;19914;-91
2022/01/06 02:30:51;;;;;;;;;;;5.60;99.90;;;;;;5098836;28;19914;-91
2022/01/06 02:33:18;;;;;;;;;;;5.60;99.90;;;;;;5098511;28;20097;-91
2022/01/06 02:35:44;;;;;;;;;;;5.60;99.90;;;;;;5098347;28;20288;-91
2022/01/06 02:38:11;;;;;;;;;;;5.60;99.90;;;;;;5098372;28;19908;-91
2022/01/06 02:40:37;;;;;;;;;;;5.60;99.90;;;;;;5099010;28;19947;-91
2022/01/06 02:43:05;;;;;;;;;;;5.60;99.90;;;;;;5098331;28;19967;-91
2022/01/06 02:45:31;;;;;;;;;;;5.50;99.90;;;;;;5098397;28;19991;-90
2022/01/06 02:47:57;;;;;;;;;;;5.50;99.90;;;;;;5098079;28;19955;-90
2022/01/06 02:50:23;;;;;;;;;;;5.50;99.90;;;;;;5116403;28;19912;-91
2022/01/06 02:52:49;;;;;;;;;;;5.50;99.90;;;;;;5116492;28;20362;-91
2022/01/06 02:55:15;;;;;;;;;;;5.40;99.90;;;;;;5098381;28;19908;-90
2022/01/06 02:57:41;;;;;;;;;;;5.40;99.90;;;;;;5098048;28;19919;-91
2022/01/06 03:00:11;;;;;;;;;;;5.40;99.90;;;;;;5098284;28;19911;-91
2022/01/06 03:02:37;;;;;;;;;;;5.40;99.90;;;;;;5097852;28;19957;-90
2022/01/06 03:05:03;;;;;;;;;;;5.30;99.90;;;;;;5098602;28;19953;-91
2022/01/06 03:07:29;;;;;;;;;;;5.30;99.90;;;;;;5098195;28;19908;-91
2022/01/06 03:09:56;;;;;;;;;;;5.30;99.90;;;;;;5097874;28;19908;-91
2022/01/06 03:14:50;;;;;;;;;;;5.20;99.90;;;;;;5115919;28;19907;-91
2022/01/06 03:17:16;;;;;;;;;;;5.20;99.90;;;;;;5097740;28;20010;-91
2022/01/06 03:19:42;;;;;;;;;;;5.20;99.90;;;;;;5097598;28;19953;-91
2022/01/06 03:22:07;;;;;;;;;;;5.20;99.90;;;;;;5097539;28;19907;-91
2022/01/06 03:24:33;;;;;;;;;;;5.20;99.90;;;;;;5097559;28;19912;-90
2022/01/06 03:26:58;;;;;;;;;;;5.20;99.90;;;;;;5115705;28;19986;-90
2022/01/06 03:29:24;;;;;;;;;;;5.20;99.90;;;;;;5097541;28;19909;-91
2022/01/06 03:31:49;;;;;;;;;;;5.20;99.90;;;;;;5097541;28;20376;-91
2022/01/06 03:34:15;;;;;;;;;;;5.10;99.90;;;;;;5097497;28;19908;-91
2022/01/06 03:36:41;;;;;;;;;;;5.20;99.90;;;;;;5096996;28;20002;-91
2022/01/06 03:39:06;;;;;;;;;;;5.20;99.90;;;;;;5098231;28;19912;-90
2022/01/06 03:41:33;;;;;;;;;;;5.20;99.90;;;;;;5097611;28;19969;-91
2022/01/06 03:43:59;;;;;;;;;;;5.20;99.90;;;;;;5097232;28;19920;-91
2022/01/06 03:46:25;;;;;;;;;;;5.20;99.90;;;;;;5097581;28;20354;-91
2022/01/06 03:48:50;;;;;;;;;;;5.20;99.90;;;;;;5097550;28;19923;-91
2022/01/06 03:51:18;;;;;;;;;;;5.30;99.90;;;;;;5097199;28;19969;-91
2022/01/06 03:53:44;;;;;;;;;;;5.30;99.90;;;;;;5097312;28;19908;-91
2022/01/06 03:56:09;;;;;;;;;;;5.40;99.90;;;;;;5097369;28;20346;-91
2022/01/06 03:58:39;;;;;;;;;;;5.40;99.90;;;;;;5096939;28;19922;-90
2022/01/06 04:01:05;;;;;;;;;;;5.40;99.90;;;;;;5097194;28;19914;-91
2022/01/06 04:03:30;;;;;;;;;;;5.40;99.90;;;;;;5097417;28;19919;-91
2022/01/06 04:05:56;;;;;;;;;;;5.40;99.90;;;;;;5097236;28;19912;-91
2022/01/06 04:08:21;;;;;;;;;;;5.40;99.90;;;;;;5097287;28;19908;-91
2022/01/06 04:10:47;;;;;;;;;;;5.40;99.90;;;;;;5097063;28;19908;-91
2022/01/06 04:13:12;;;;;;;;;;;5.40;99.90;;;;;;5097993;28;20025;-91
2022/01/06 04:15:38;;;;;;;;;;;5.40;99.90;;;;;;5096895;28;19914;-91
2022/01/06 04:18:04;;;;;;;;;;;5.40;99.90;;;;;;5097577;28;20015;-91
2022/01/06 04:20:30;;;;;;;;;;;5.40;99.90;;;;;;5097238;28;19936;-91
2022/01/06 04:22:55;;;;;;;;;;;5.40;99.90;;;;;;5100223;28;20370;-91
2022/01/06 04:25:21;;;;;;;;;;;5.40;99.90;;;;;;5105742;28;19915;-91
2022/01/06 04:27:47;;;;;;;;;;;5.40;99.90;;;;;;5126051;28;19908;-91
2022/01/06 04:30:13;;;;;;;;;;;5.40;99.90;;;;;;5105395;28;19908;-91
2022/01/06 04:32:38;;;;;;;;;;;5.40;99.90;;;;;;5100942;28;19912;-91
2022/01/06 04:35:05;;;;;;;;;;;5.50;99.90;;;;;;5101297;28;20002;-91
2022/01/06 04:37:31;;;;;;;;;;;5.50;99.90;;;;;;5100921;28;19915;-91
2022/01/06 04:39:56;;;;;;;;;;;5.60;99.90;;;;;;5119047;28;19911;-91
2022/01/06 04:42:22;;;;;;;;;;;5.60;99.90;;;;;;5100427;28;19942;-91
2022/01/06 04:44:47;;;;;;;;;;;5.70;99.90;;;;;;5100828;28;19908;-91
2022/01/06 04:47:13;;;;;;;;;;;5.80;99.90;;;;;;5101154;28;19912;-92
2022/01/06 04:49:38;;;;;;;;;;;5.90;99.90;;;;;;5101255;28;19919;-91
2022/01/06 04:52:04;;;;;;;;;;;5.90;99.90;;;;;;5100920;28;19908;-91
2022/01/06 04:54:30;;;;;;;;;;;5.90;99.90;;;;;;5100475;28;20346;-91
2022/01/06 04:56:55;;;;;;;;;;;6.00;99.90;;;;;;5100935;28;19908;-91
2022/01/06 04:59:21;;;;;;;;;;;6.00;99.90;;;;;;5100497;28;20330;-91
2022/01/06 05:01:47;;;;;;;;;;;6.00;99.90;;;;;;5100336;28;20042;-91
2022/01/06 05:04:12;;;;;;;;;;;6.00;99.90;;;;;;5100152;28;19923;-91
2022/01/06 05:06:38;;;;;;;;;;;6.00;99.90;;;;;;5100335;28;19915;-91
2022/01/06 05:09:04;;;;;;;;;;;6.00;99.90;;;;;;5100898;28;19915;-91
2022/01/06 05:11:29;;;;;;;;;;;6.00;99.90;;;;;;5100976;28;19912;-91
2022/01/06 05:13:55;;;;;;;;;;;6.10;99.90;;;;;;5100460;28;19907;-91
2022/01/06 05:16:20;;;;;;;;;;;6.10;99.90;;;;;;5099895;28;19954;-91
2022/01/06 05:18:46;;;;;;;;;;;6.10;99.90;;;;;;5100247;28;19961;-91
2022/01/06 05:21:12;;;;;;;;;;;6.10;99.90;;;;;;5099918;28;20002;-91
2022/01/06 05:23:39;;;;;;;;;;;6.10;99.90;;;;;;5099704;28;19960;-91
2022/01/06 05:26:04;;;;;;;;;;;6.10;99.90;;;;;;5117989;28;19908;-91
2022/01/06 05:28:30;;;;;;;;;;;6.10;99.90;;;;;;5099681;28;19907;-91
2022/01/06 05:30:56;;;;;;;;;;;6.10;99.90;;;;;;5099749;28;19916;-91
2022/01/06 05:33:21;;;;;;;;;;;6.20;99.90;;;;;;5099853;28;19908;-91
2022/01/06 05:35:47;;;;;;;;;;;6.20;99.90;;;;;;5099540;28;19915;-91
2022/01/06 05:38:12;;;;;;;;;;;6.20;99.90;;;;;;5099777;28;19965;-91
2022/01/06 05:40:38;;;;;;;;;;;6.20;99.90;;;;;;5099563;28;19908;-90
2022/01/06 05:43:04;;;;;;;;;;;6.20;99.90;;;;;;5099561;28;20011;-91
2022/01/06 05:45:29;;;;;;;;;;;6.10;99.90;;;;;;5099396;28;19907;-91
2022/01/06 05:47:55;;;;;;;;;;;6.10;99.90;;;;;;5099123;28;20362;-91
2022/01/06 05:50:21;;;;;;;;;;;6.10;99.90;;;;;;5099375;28;19918;-91
2022/01/06 05:52:47;;;;;;;;;;;6.00;99.90;;;;;;5099707;28;20006;-91
2022/01/06 05:55:12;;;;;;;;;;;6.00;99.90;;;;;;5099118;28;20316;-91
2022/01/06 05:57:38;;;;;;;;;;;5.90;99.90;;;;;;5098900;28;19908;-91
2022/01/06 06:00:05;;;;;;;;;;;5.90;99.90;;;;;;5099895;28;20258;-91
2022/01/06 06:02:31;;;;;;;;;;;5.80;99.90;;;;;;5098778;28;19916;-91
2022/01/06 06:04:56;;;;;;;;;;;5.80;99.90;;;;;;5099179;28;19908;-91
2022/01/06 06:07:23;;;;;;;;;;;5.80;99.90;;;;;;5098944;28;19908;-91
2022/01/06 06:09:49;;;;;;;;;;;5.90;99.90;;;;;;5098849;28;19911;-91
2022/01/06 06:12:15;;;;;;;;;;;5.90;99.90;;;;;;5098871;28;19915;-91
2022/01/06 06:14:41;;;;;;;;;;;6.00;99.90;;;;;;5098414;28;20346;-91
2022/01/06 06:17:06;;;;;;;;;;;6.00;99.90;;;;;;5099329;28;20006;-91
2022/01/06 06:19:32;;;;;;;;;;;6.00;99.90;;;;;;5099381;28;19961;-91
2022/01/06 06:21:57;;;;;;;;;;;6.10;99.90;;;;;;5098418;28;19908;-91
2022/01/06 06:24:23;;;;;;;;;;;6.10;99.90;;;;;;5098752;28;19907;-91
2022/01/06 06:26:50;;;;;;;;;;;6.10;99.90;;;;;;5098602;28;20003;-91
2022/01/06 06:29:16;;;;;;;;;;;6.10;99.90;;;;;;5098179;28;19908;-91
2022/01/06 06:31:42;;;;;;;;;;;6.10;99.90;;;;;;5098409;28;19914;-91
2022/01/06 06:34:09;;;;;;;;;;;6.10;99.90;;;;;;5098789;28;19990;-91
2022/01/06 06:36:35;;;;;;;;;;;6.10;99.90;;;;;;5099284;28;19996;-91
2022/01/06 06:39:00;;;;;;;;;;;6.10;99.90;;;;;;5098591;28;19930;-90
2022/01/06 06:41:26;;;;;;;;;;;6.10;99.90;;;;;;5098727;28;19911;-91
2022/01/06 06:43:52;;;;;;;;;;;6.20;99.90;;;;;;5098199;28;19944;-91
2022/01/06 06:46:17;;;;;;;;;;;6.20;99.90;;;;;;5098479;28;20255;-90
2022/01/06 06:48:43;;;;;;;;;;;6.30;99.90;;;;;;5097637;28;19918;-91
2022/01/06 06:51:09;;;;;;;;;;;6.30;99.90;;;;;;5099256;28;19965;-91
2022/01/06 06:53:34;;;;;;;;;;;6.40;99.90;;;;;;5098697;28;20289;-90
2022/01/06 06:56:00;;;;;;;;;;;6.50;99.90;;;;;;5098080;28;19912;-91
2022/01/06 06:58:26;;;;;;;;;;;6.60;99.90;;;;;;5097910;28;19919;-90
2022/01/06 07:00:51;;;;;;;;;;;6.70;99.90;;;;;;5097812;28;19907;-91
2022/01/06 07:03:17;;;;;;;;;;;6.80;99.90;;;;;;5097572;28;19922;-90
2022/01/06 07:05:43;;;;;;;;;;;6.80;99.90;;;;;;5098092;28;19908;-90
2022/01/06 07:08:08;;;;;;;;;;;6.90;99.90;;;;;;5098178;28;20300;-90
2022/01/06 07:10:34;;;;;;;;;;;6.80;99.90;;;;;;5097423;28;19907;-91
2022/01/06 07:12:59;;;;;;;;;;;6.80;99.90;;;;;;5115904;28;19908;-91
2022/01/06 07:15:27;;;;;;;;;;;6.80;99.90;;;;;;5097554;28;19915;-91
2022/01/06 07:17:53;;;;;;;;;;;6.90;99.90;;;;;;5097896;28;19907;-91
2022/01/06 07:20:18;;;;;;;;;;;6.90;99.90;;;;;;5097493;28;20399;-91
2022/01/06 07:22:44;;;;;;;;;;;7.00;99.90;;;;;;5097589;28;19916;-92
2022/01/06 07:25:10;;;;;;;;;;;7.00;99.90;;;;;;5097575;28;19953;-92
2022/01/06 07:27:35;;;;;;;;;;;7.00;99.90;;;;;;5098489;28;19908;-91
2022/01/06 07:30:01;;;;;;;;;;;7.00;99.90;;;;;;5098413;28;20011;-91
2022/01/06 07:32:27;;;;;;;;;;;7.00;99.90;;;;;;5097071;28;19919;-91
2022/01/06 07:34:55;;;;;;;;;;;7.00;99.90;;;;;;5097141;28;19908;-91
2022/01/06 07:37:20;;;;;;;;;;;7.10;99.90;;;;;;5097105;28;19974;-91
2022/01/06 07:39:46;;;;;;;;;;;7.10;99.90;;;;;;5097321;28;20358;-91
2022/01/06 07:42:14;;;;;;;;;;;7.00;99.90;;;;;;5097820;28;20243;-91
2022/01/06 07:44:39;;;;;;;;;;;7.00;99.90;;;;;;5097242;28;19911;-90
2022/01/06 07:47:05;;;;;;;;;;;7.10;99.90;;;;;;5097569;28;19912;-91
2022/01/06 07:49:31;;;;;;;;;;;7.10;99.90;;;;;;5096896;28;19907;-89
2022/01/06 07:51:57;;;;;;;;;;;7.10;99.90;;;;;;5098225;28;19920;-91
2022/01/06 07:54:22;;;;;;;;;;;7.10;99.90;;;;;;5098085;28;19908;-91
2022/01/06 07:56:50;;;;;;;;;;;7.10;99.90;;;;;;5096925;28;19908;-91
2022/01/06 07:59:18;;;;;;;;;;;7.10;99.90;;;;;;5100567;28;19915;-91
2022/01/06 08:01:44;;;;;;;;;;;7.20;99.90;;;;;;5101960;28;19954;-90
2022/01/06 08:04:10;;;;;;;;;;;7.20;99.90;;;;;;5101443;28;19955;-91
2022/01/06 08:06:38;;;;;;;;;;;7.20;99.90;;;;;;5101414;28;19912;-92
2022/01/06 08:09:06;;;;;;;;;;;7.20;99.90;;;;;;5119666;28;19908;-92
2022/01/06 08:11:43;;;;;;;;;;;7.20;99.90;;;;;;5101489;28;19912;-91
2022/01/06 08:14:15;;;;;;;;;;;7.20;99.90;;;;;;5101863;28;19908;-91
2022/01/06 08:16:41;;;;;;;;;;;7.20;99.90;;;;;;5101356;28;19908;-91
2022/01/06 08:19:06;;;;;;;;;;;7.20;99.90;;;;;;5101686;28;19958;-90
2022/01/06 08:21:35;;;;;;;;;;;7.20;99.90;;;;;;5101174;28;19950;-91
2022/01/06 08:24:01;;;;;;;;;;;7.20;99.90;;;;;;5100879;28;20370;-91
2022/01/06 08:26:26;;;;;;;;;;;7.20;99.90;;;;;;5101861;28;19923;-91
2022/01/06 08:28:52;;;;;;;;;;;7.10;99.90;;;;;;5101515;28;19915;-90
2022/01/06 08:31:17;;;;;;;;;;;7.10;99.90;;;;;;5101694;28;19961;-90
2022/01/06 08:33:45;;;;;;;;;;;7.10;99.90;;;;;;5100891;28;19929;-91
2022/01/06 08:36:11;;;;;;;;;;;7.10;99.90;;;;;;5101345;28;19908;-91
2022/01/06 08:38:47;;;;;;;;;;;;;;;;;;;;;
2022/01/06 08:41:15;;;;;;;;;;;7.10;99.90;;;;;;5119385;28;19907;-91
2022/01/06 08:43:41;;;;;;;;;;;7.10;99.90;;;;;;5100463;28;19920;-91
2022/01/06 08:46:07;;;;;;;;;;;7.00;99.90;;;;;;5100887;28;19914;-91
2022/01/06 08:48:32;;;;;;;;;;;7.00;99.90;;;;;;5099687;28;19923;-91
2022/01/06 08:50:58;;;;;;;;;;;7.00;99.90;;;;;;5118971;28;19919;-92
2022/01/06 08:53:24;;;;;;;;;;;6.90;99.90;;;;;;5100280;28;19915;-91
2022/01/06 08:55:49;;;;;;;;;;;6.90;99.90;;;;;;5101029;28;19908;-91
2022/01/06 08:58:16;;;;;;;;;;;6.90;99.90;;;;;;5100330;28;19922;-91
2022/01/06 09:00:42;;;;;;;;;;;6.80;99.90;;;;;;5101227;28;19918;-92
2022/01/06 09:03:08;;;;;;;;;;;6.80;99.90;;;;;;5100812;28;20007;-90
2022/01/06 09:05:34;;;;;;;;;;;6.80;99.90;;;;;;5100598;28;19958;-91
2022/01/06 09:08:00;;;;;;;;;;;6.90;99.90;;;;;;5100655;28;20269;-91
2022/01/06 09:10:29;;;;;;;;;;;6.80;99.90;;;;;;5099773;28;19919;-92
2022/01/06 09:12:55;;;;;;;;;;;6.90;99.90;;;;;;5118649;28;19957;-91
2022/01/06 09:15:21;;;;;;;;;;;6.90;99.90;;;;;;5100069;28;19908;-92
2022/01/06 09:17:46;;;;;;;;;;;6.80;99.90;;;;;;5100547;28;19960;-92
2022/01/06 09:20:14;;;;;;;;;;;6.80;99.90;;;;;;5100724;28;20258;-92
2022/01/06 09:22:41;;;;;;;;;;;6.90;99.90;;;;;;5099929;28;19916;-92
2022/01/06 09:25:07;;;;;;;;;;;6.90;99.90;;;;;;5100013;28;19912;-92
2022/01/06 09:27:32;;;;;;;;;;;6.90;99.90;;;;;;5099653;28;19911;-92
2022/01/06 09:29:58;;;;;;;;;;;6.90;99.90;;;;;;5099397;28;19952;-92
2022/01/06 09:32:24;;;;;;;;;;;6.90;99.90;;;;;;5100497;28;19954;-91
2022/01/06 09:34:50;;;;;;;;;;;6.90;99.90;;;;;;5099651;28;19914;-90
2022/01/06 09:37:17;;;;;;;;;;;6.90;99.90;;;;;;5099259;28;20018;-91
2022/01/06 09:39:45;;;;;;;;;;;6.90;99.90;;;;;;5100011;28;20369;-90
2022/01/06 09:42:12;;;;;;;;;;;6.90;99.90;;;;;;5099408;28;19920;-93
2022/01/06 09:44:38;;;;;;;;;;;6.90;99.90;;;;;;5100516;28;19911;-92
2022/01/06 09:47:06;;;;;;;;;;;6.90;99.90;;;;;;5118153;28;19908;-91
2022/01/06 09:49:34;;;;;;;;;;;6.90;99.90;;;;;;5099695;28;19919;-92
2022/01/06 09:51:59;;;;;;;;;;;6.90;99.90;;;;;;5099384;28;19981;-94
2022/01/06 09:54:25;;;;;;;;;;;6.90;99.90;;;;;;5101361;28;20342;-90
2022/01/06 09:56:53;;;;;;;;;;;6.90;99.90;;;;;;5100472;28;19988;-93
2022/01/06 09:59:19;;;;;;;;;;;6.90;99.90;;;;;;5100624;28;19908;-92
2022/01/06 10:01:44;;;;;;;;;;;6.90;99.90;;;;;;5100227;28;19908;-91
2022/01/06 10:04:17;;;;;;;;;;;6.80;99.90;;;;;;5107985;27;19986;-91
2022/01/06 10:06:42;;;;;;;;;;;6.80;99.90;;;;;;5120519;27;19914;-94
2022/01/06 10:09:08;;;;;;;;;;;6.80;99.90;;;;;;5137370;27;19908;-93
2022/01/06 10:11:34;;;;;;;;;;;6.80;99.90;;;;;;5137680;27;19930;-93
2022/01/06 10:14:07;;;;;;;;;;;6.80;99.90;;;;;;5121887;27;19994;-94
2022/01/06 10:16:33;;;;;;;;;;;6.80;99.90;;;;;;5122241;27;19965;-92
2022/01/06 10:18:59;;;;;;;;;;;6.80;99.90;;;;;;5125101;27;19965;-93
2022/01/06 10:21:25;;;;;;;;;;;6.80;99.90;;;;;;5138983;27;19914;-91
2022/01/06 10:24:01;;;;;;;;;;;6.80;99.90;;;;;;5122833;27;20414;-94
2022/01/06 10:26:26;;;;;;;;;;;6.80;99.90;;;;;;5103941;28;19916;-91
2022/01/06 10:28:52;;;;;;;;;;;6.80;99.90;;;;;;5098891;28;20006;-92
2022/01/06 10:31:22;;;;;;;;;;;6.80;99.90;;;;;;5098937;28;19975;-93
2022/01/06 10:33:47;;;;;;;;;;;6.90;99.90;;;;;;5098533;28;19914;-93
2022/01/06 10:36:13;;;;;;;;;;;6.90;99.90;;;;;;5098536;28;19907;-92
2022/01/06 10:38:39;;;;;;;;;;;6.90;99.90;;;;;;5098963;28;19908;-93
2022/01/06 10:41:09;;;;;;;;;;;6.90;99.90;;;;;;5098928;28;19911;-93
2022/01/06 10:43:35;;;;;;;;;;;6.90;99.90;;;;;;5100192;28;19927;-93
2022/01/06 10:46:02;;;;;;;;;;;6.90;99.90;;;;;;5098974;28;20270;-92
2022/01/06 10:48:27;;;;;;;;;;;6.90;99.90;;;;;;5098286;28;20314;-92
2022/01/06 10:50:56;;;;;;;;;;;6.90;99.90;;;;;;5098848;28;20002;-93
2022/01/06 10:53:22;;;;;;;;;;;6.90;99.90;;;;;;5099262;28;19946;-93
2022/01/06 10:55:48;;;;;;;;;;;6.90;99.90;;;;;;5098559;28;20350;-92
2022/01/06 10:58:18;;;;;;;;;;;6.90;99.90;;;;;;5099411;28;20266;-92
2022/01/06 11:00:45;;;;;;;;;;;6.90;99.90;;;;;;5099697;28;20010;-92
2022/01/06 11:03:15;;;;;;;;;;;7.00;99.90;;;;;;5098547;28;20014;-92
2022/01/06 11:05:45;;;;;;;;;;;7.10;99.90;;;;;;5098624;28;19914;-90
2022/01/06 11:08:12;;;;;;;;;;;7.20;99.90;;;;;;5097338;28;19953;-89
2022/01/06 11:10:45;;;;;;;;;;;7.30;99.90;;;;;;5097303;28;19907;-89
2022/01/06 11:13:11;;;;;;;;;;;7.30;99.90;;;;;;5097044;28;19908;-89
2022/01/06 11:15:36;;;;;;;;;;;7.50;99.90;;;;;;5097247;28;19912;-90
2022/01/06 11:18:04;;;;;;;;;;;7.60;99.90;;;;;;5097250;28;19915;-91
2022/01/06 11:20:31;;;;;;;;;;;7.60;99.90;;;;;;5097238;28;20356;-90
2022/01/06 11:22:58;;;;;;;;;;;7.60;99.90;;;;;;5097704;28;20354;-90
2022/01/06 11:25:30;;;;;;;;;;;7.60;99.90;;;;;;5097051;28;20221;-91
2022/01/06 11:28:03;;;;;;;;;;;7.60;99.90;;;;;;5097265;28;19995;-91
2022/01/06 11:30:43;;;;;;;;;;;7.60;99.90;;;;;;5098070;28;20381;-91
2022/01/06 11:33:09;;;;;;;;;;;7.60;99.90;;;;;;5098114;28;19919;-93
2022/01/06 11:35:55;;;;;;;;;;;7.60;99.90;;;;;;5100894;28;19994;-94
2022/01/06 11:38:25;;;;;;;;;;;7.50;99.90;;;;;;5098149;28;19907;-92
2022/01/06 11:41:12;;;;;;;;;;;7.60;99.90;;;;;;5098480;28;19931;-91
2022/01/06 11:43:39;;;;;;;;;;;7.60;99.90;;;;;;5093923;28;19920;-94
2022/01/06 11:46:21;;;;;;;;;;;7.70;99.90;;;;;;5113960;27;19916;-93
2022/01/06 11:48:52;;;;;;;;;;;7.70;99.90;;;;;;5147821;27;20003;-92
2022/01/06 11:51:23;;;;;;;;;;;7.80;99.90;;;;;;5113680;28;19912;-92
2022/01/06 11:53:49;;;;;;;;;;;7.80;99.90;;;;;;5112585;28;19981;-92
2022/01/06 11:56:15;;;;;;;;;;;7.80;99.90;;;;;;5113065;28;20339;-91
2022/01/06 12:01:48;;;;;;;;;;;7.90;99.90;;;;;;5115887;28;19950;-94
2022/01/06 12:04:15;;;;;;;;;;;7.90;99.90;;;;;;5113380;28;19966;-94
2022/01/06 12:06:44;;;;;;;;;;;7.90;99.90;;;;;;5112334;28;19915;-94
2022/01/06 12:09:19;;;;;;;;;;;7.80;99.90;;;;;;5111923;28;20099;-93
2022/01/06 12:12:04;;;;;;;;;;;7.80;99.90;;;;;;5112729;28;19950;-94
2022/01/06 12:14:33;;;;;;;;;;;7.70;99.90;;;;;;5113562;28;20327;-94
2022/01/06 12:17:07;;;;;;;;;;;7.60;99.90;;;;;;5113999;28;19981;-95
2022/01/06 12:22:34;;;;;;;;;;;;;;;;;;;;;
2022/01/06 12:25:20;;;;;;;;;;;7.60;99.90;;;;;;5087430;28;19921;-96
2022/01/06 12:33:31;;;;;;;;;;;7.60;99.90;;;;;;5097065;22;20276;-95
2022/01/06 12:35:57;;;;;;;;;;;7.60;99.90;;;;;;5016228;28;19913;-95
2022/01/06 12:38:31;;;;;;;;;;;7.60;99.90;;;;;;5034902;28;19910;-94
2022/01/06 12:40:57;;;;;;;;;;;7.60;99.90;;;;;;5018177;28;19913;-95
2022/01/06 12:43:30;;;;;;;;;;;7.50;99.90;;;;;;5016858;28;19939;-93
2022/01/06 12:46:11;;;;;;;;;;;7.50;99.90;;;;;;5016611;28;19917;-96
2022/01/06 12:54:49;;;;;;;;;;;7.40;99.90;;;;;;5042550;28;20339;-94
2022/01/06 12:57:23;;;;;;;;;;;7.40;99.90;;;;;;5012626;28;19910;-94
2022/01/06 12:59:55;;;;;;;;;;;7.40;99.90;;;;;;5015782;28;19909;-94
2022/01/06 13:02:28;;;;;;;;;;;7.30;99.90;;;;;;5010867;28;19917;-95
2022/01/06 13:04:53;;;;;;;;;;;7.30;99.90;;;;;;5007831;28;19997;-93
2022/01/06 13:07:22;;;;;;;;;;;7.40;99.90;;;;;;5008913;28;19913;-94
2022/01/06 13:13:27;;;;;;;;;;;7.20;99.60;;;;;;5031221;28;19915;-95
2022/01/06 13:16:13;;;;;;;;;;;7.00;99.90;;;;;;5010058;28;19948;-95
2022/01/06 13:18:54;;;;;;;;;;;6.90;99.90;;;;;;4995424;28;19972;-96
2022/01/06 13:21:39;;;;;;;;;;;6.80;99.90;;;;;;5006143;28;19992;-93
2022/01/06 13:27:21;;;;;;;;;;;6.60;99.50;;;;;;4962525;29;20329;-94
2022/01/06 13:29:51;;;;;;;;;;;6.50;99.90;;;;;;5018809;28;20316;-94
2022/01/06 13:32:21;;;;;;;;;;;6.40;99.90;;;;;;5002338;28;19913;-94
2022/01/06 13:35:02;;;;;;;;;;;6.30;99.90;;;;;;5019399;28;19921;-94
2022/01/06 13:37:34;;;;;;;;;;;6.30;99.90;;;;;;5001728;28;19913;-93
2022/01/06 13:40:07;;;;;;;;;;;6.30;99.90;;;;;;5004764;28;19913;-94
2022/01/06 13:42:42;;;;;;;;;;;6.20;99.90;;;;;;5004510;28;20344;-95
2022/01/06 13:45:18;;;;;;;;;;;6.20;99.90;;;;;;5002753;28;19918;-95
2022/01/06 13:53:35;;;;;;;;;;;6.10;99.90;;;;;;5022246;28;19967;-95
2022/01/06 13:56:09;;;;;;;;;;;6.10;99.90;;;;;;5002859;28;19910;-95
2022/01/06 13:58:39;;;;;;;;;;;6.10;99.90;;;;;;5004060;28;19975;-95
2022/01/06 14:01:06;;;;;;;;;;;6.10;99.40;;;;;;5003287;28;19916;-94
2022/01/06 14:03:38;;;;;;;;;;;6.00;99.90;;;;;;5002228;28;19913;-93
2022/01/06 14:06:08;;;;;;;;;;;6.00;99.90;;;;;;5002490;28;19921;-93
2022/01/06 14:08:37;;;;;;;;;;;6.00;99.90;;;;;;5019901;28;19916;-94
2022/01/06 14:11:14;;;;;;;;;;;6.00;99.90;;;;;;5001194;28;20268;-94
2022/01/06 14:13:41;;;;;;;;;;;6.00;99.90;;;;;;5001277;28;19976;-94
2022/01/06 14:16:07;;;;;;;;;;;6.00;99.90;;;;;;5000287;28;19976;-94
2022/01/06 14:18:33;;;;;;;;;;;6.00;99.70;;;;;;5019622;28;20356;-94
2022/01/06 14:21:05;;;;;;;;;;;5.90;99.10;;;;;;5000743;28;19920;-94
2022/01/06 14:23:32;;;;;;;;;;;5.90;99.20;;;;;;5004361;28;19957;-93
2022/01/06 14:25:59;;;;;;;;;;;5.80;99.30;;;;;;5002952;28;19924;-94
2022/01/06 14:28:29;;;;;;;;;;;5.70;99.20;;;;;;5001972;28;19948;-94
2022/01/06 14:30:57;;;;;;;;;;;5.70;98.70;;;;;;5001474;28;19992;-94
2022/01/06 14:33:28;;;;;;;;;;;5.60;99.20;;;;;;4999796;28;19928;-94
2022/01/06 14:35:54;;;;;;;;;;;5.70;99.50;;;;;;5000252;28;19960;-94
2022/01/06 14:38:23;;;;;;;;;;;5.60;99.60;;;;;;5000558;28;19909;-94
2022/01/06 14:40:52;;;;;;;;;;;5.60;98.40;;;;;;4999615;28;19960;-94
2022/01/06 14:43:17;;;;;;;;;;;5.60;99.00;;;;;;4999592;28;19984;-94
2022/01/06 14:45:46;;;;;;;;;;;5.60;98.80;;;;;;4999446;28;19961;-94
2022/01/06 14:48:12;;;;;;;;;;;5.50;98.60;;;;;;5000006;28;19913;-93
2022/01/06 14:53:41;;;;;;;;;;;5.40;98.70;;;;;;5017405;28;19940;-94
2022/01/06 14:56:08;;;;;;;;;;;5.40;98.80;;;;;;5000117;28;19910;-94
2022/01/06 14:58:34;;;;;;;;;;;5.40;98.40;;;;;;4999643;28;19909;-93
2022/01/06 15:00:59;;;;;;;;;;;5.30;99.10;;;;;;4999297;28;20352;-94
2022/01/06 15:03:25;;;;;;;;;;;5.30;98.60;;;;;;4999354;28;20077;-94
2022/01/06 15:05:51;;;;;;;;;;;5.30;98.30;;;;;;4999687;28;19918;-93
2022/01/06 15:08:16;;;;;;;;;;;5.30;99.10;;;;;;5000439;28;20284;-94
2022/01/06 15:10:42;;;;;;;;;;;5.20;97.50;;;;;;4999417;28;20276;-93
2022/01/06 15:13:08;;;;;;;;;;;5.20;98.50;;;;;;4999429;28;19910;-95
2022/01/06 15:15:33;;;;;;;;;;;5.20;98.60;;;;;;5017303;28;19910;-93